createdAt,value
2018-12-17T00:00:14.157Z,88
2018-12-17T00:01:16.236Z,88
2018-12-17T00:02:18.253Z,88
2018-12-17T00:03:20.274Z,88
2018-12-17T00:04:22.302Z,88
2018-12-17T00:05:24.323Z,88
2018-12-17T00:06:26.344Z,88
2018-12-17T00:07:28.351Z,88
2018-12-17T00:08:33.043Z,88
2018-12-17T00:09:35.068Z,88
2018-12-17T00:10:37.086Z,88
2018-12-17T00:11:39.124Z,88
2018-12-17T00:12:41.135Z,88
2018-12-17T00:13:43.158Z,88
2018-12-17T00:14:45.185Z,88
2018-12-17T00:15:47.208Z,89
2018-12-17T00:16:49.302Z,89
2018-12-17T00:17:51.603Z,88
2018-12-17T00:18:53.623Z,88
2018-12-17T00:19:55.635Z,88
2018-12-17T00:20:57.665Z,88
2018-12-17T00:21:59.680Z,88
2018-12-17T00:23:01.987Z,88
2018-12-17T00:24:04.322Z,88
2018-12-17T00:25:06.414Z,88
2018-12-17T00:26:08.428Z,88
2018-12-17T00:27:10.450Z,88
2018-12-17T00:28:12.469Z,88
2018-12-17T00:29:14.841Z,88
2018-12-17T00:30:16.864Z,88
2018-12-17T00:31:19.188Z,88
2018-12-17T00:32:21.197Z,88
2018-12-17T00:33:23.304Z,88
2018-12-17T00:34:25.322Z,88
2018-12-17T00:35:27.420Z,88
2018-12-17T00:36:29.447Z,88
2018-12-17T00:37:31.457Z,88
2018-12-17T00:38:33.483Z,88
2018-12-17T00:39:35.497Z,88
2018-12-17T00:40:37.528Z,89
2018-12-17T00:41:39.574Z,88
2018-12-17T00:42:41.587Z,89
2018-12-17T00:43:45.540Z,89
2018-12-17T00:44:47.569Z,89
2018-12-17T00:45:49.587Z,88
2018-12-17T00:46:51.610Z,89
2018-12-17T00:47:53.633Z,89
2018-12-17T00:48:55.656Z,89
2018-12-17T00:49:58.055Z,89
2018-12-17T00:51:00.075Z,89
2018-12-17T00:52:02.375Z,89
2018-12-17T00:53:04.390Z,89
2018-12-17T00:54:06.417Z,89
2018-12-17T00:55:08.432Z,89
2018-12-17T00:56:10.453Z,89
2018-12-17T00:57:12.494Z,89
2018-12-17T00:58:16.164Z,89
2018-12-17T00:59:18.191Z,89
2018-12-17T01:00:20.219Z,89
2018-12-17T01:01:22.234Z,89
2018-12-17T01:02:24.258Z,89
2018-12-17T01:03:26.285Z,90
2018-12-17T01:04:28.311Z,90
2018-12-17T01:05:30.597Z,89
2018-12-17T01:06:32.630Z,89
2018-12-17T01:07:34.644Z,90
2018-12-17T01:08:36.668Z,90
2018-12-17T01:09:38.972Z,90
2018-12-17T01:10:40.988Z,90
2018-12-17T01:11:43.010Z,90
2018-12-17T01:12:45.025Z,90
2018-12-17T01:13:47.055Z,90
2018-12-17T01:14:49.067Z,90
2018-12-17T01:15:51.095Z,90
2018-12-17T01:16:53.119Z,90
2018-12-17T01:17:55.415Z,90
2018-12-17T01:18:57.444Z,90
2018-12-17T01:19:59.455Z,90
2018-12-17T01:21:02.137Z,90
2018-12-17T01:22:04.168Z,90
2018-12-17T01:23:06.205Z,90
2018-12-17T01:24:08.217Z,90
2018-12-17T01:25:10.238Z,90
2018-12-17T01:26:12.320Z,90
2018-12-17T01:27:14.331Z,90
2018-12-17T01:28:23.159Z,90
2018-12-17T01:29:25.226Z,90
2018-12-17T01:30:27.236Z,90
2018-12-17T01:31:29.266Z,90
2018-12-17T01:32:31.334Z,90
2018-12-17T01:33:33.353Z,90
2018-12-17T01:34:35.374Z,90
2018-12-17T01:35:37.392Z,90
2018-12-17T01:36:39.403Z,90
2018-12-17T01:37:41.422Z,90
2018-12-17T01:38:43.460Z,90
2018-12-17T01:39:45.479Z,90
2018-12-17T01:40:47.887Z,90
2018-12-17T01:41:49.918Z,90
2018-12-17T01:42:52.214Z,91
2018-12-17T01:43:54.240Z,91
2018-12-17T01:44:56.258Z,91
2018-12-17T01:45:58.327Z,91
2018-12-17T01:47:00.337Z,91
2018-12-17T01:48:02.370Z,91
2018-12-17T01:49:04.388Z,91
2018-12-17T01:50:06.410Z,91
2018-12-17T01:51:08.435Z,91
2018-12-17T01:52:10.453Z,91
2018-12-17T01:53:12.475Z,91
2018-12-17T01:54:14.500Z,91
2018-12-17T01:55:16.521Z,91
2018-12-17T01:56:18.530Z,91
2018-12-17T01:57:20.552Z,91
2018-12-17T01:58:29.921Z,92
2018-12-17T01:59:31.943Z,92
2018-12-17T02:00:33.960Z,92
2018-12-17T02:01:36.362Z,92
2018-12-17T02:02:38.391Z,92
2018-12-17T02:03:40.403Z,92
2018-12-17T02:04:42.421Z,92
2018-12-17T02:05:44.444Z,92
2018-12-17T02:06:46.460Z,92
2018-12-17T02:07:48.490Z,92
2018-12-17T02:08:50.591Z,92
2018-12-17T02:09:53.000Z,92
2018-12-17T02:10:55.016Z,92
2018-12-17T02:11:57.047Z,92
2018-12-17T02:12:59.056Z,92
2018-12-17T02:14:01.074Z,92
2018-12-17T02:15:03.761Z,93
2018-12-17T02:16:05.803Z,93
2018-12-17T02:17:08.131Z,93
2018-12-17T02:18:10.435Z,93
2018-12-17T02:19:12.462Z,92
2018-12-17T02:20:14.568Z,93
2018-12-17T02:21:16.602Z,93
2018-12-17T02:22:18.625Z,93
2018-12-17T02:23:20.945Z,93
2018-12-17T02:24:22.970Z,93
2018-12-17T02:25:25.050Z,93
2018-12-17T02:26:27.076Z,93
2018-12-17T02:27:29.099Z,93
2018-12-17T02:28:37.156Z,94
2018-12-17T02:29:39.181Z,93
2018-12-17T02:30:41.793Z,93
2018-12-17T02:31:43.832Z,93
2018-12-17T02:32:45.851Z,93
2018-12-17T02:33:47.941Z,93
2018-12-17T02:34:49.970Z,94
2018-12-17T02:35:52.301Z,94
2018-12-17T02:36:54.307Z,94
2018-12-17T02:37:56.328Z,94
2018-12-17T02:38:58.349Z,94
2018-12-17T02:40:00.370Z,94
2018-12-17T02:41:02.403Z,94
2018-12-17T02:42:04.439Z,94
2018-12-17T02:43:06.455Z,94
2018-12-17T02:44:08.471Z,94
2018-12-17T02:45:10.520Z,94
2018-12-17T02:46:12.533Z,95
2018-12-17T02:47:14.857Z,95
2018-12-17T02:48:16.971Z,95
2018-12-17T02:49:18.978Z,95
2018-12-17T02:50:21.403Z,95
2018-12-17T02:51:23.436Z,95
2018-12-17T02:52:25.857Z,95
2018-12-17T02:53:28.164Z,95
2018-12-17T02:54:30.484Z,95
2018-12-17T02:55:32.584Z,96
2018-12-17T02:56:34.888Z,96
2018-12-17T02:57:37.227Z,96
2018-12-17T02:58:44.925Z,96
2018-12-17T02:59:46.961Z,96
2018-12-17T03:00:49.291Z,96
2018-12-17T03:01:51.701Z,96
2018-12-17T03:02:53.706Z,96
2018-12-17T03:03:56.144Z,96
2018-12-17T03:04:58.166Z,96
2018-12-17T03:06:00.774Z,96
2018-12-17T03:07:02.809Z,96
2018-12-17T03:08:05.109Z,96
2018-12-17T03:09:07.408Z,97
2018-12-17T03:10:10.049Z,97
2018-12-17T03:11:12.066Z,97
2018-12-17T03:12:14.081Z,97
2018-12-17T03:13:16.630Z,97
2018-12-17T03:14:18.947Z,97
2018-12-17T03:15:21.251Z,97
2018-12-17T03:16:23.270Z,97
2018-12-17T03:17:25.298Z,97
2018-12-17T03:18:27.330Z,97
2018-12-17T03:19:29.346Z,97
2018-12-17T03:20:31.647Z,98
2018-12-17T03:21:33.738Z,98
2018-12-17T03:22:35.766Z,98
2018-12-17T03:23:38.077Z,98
2018-12-17T03:24:40.381Z,98
2018-12-17T03:25:42.985Z,98
2018-12-17T03:26:44.995Z,98
2018-12-17T03:27:47.034Z,98
2018-12-17T03:28:52.825Z,98
2018-12-17T03:29:54.847Z,98
2018-12-17T03:30:57.026Z,99
2018-12-17T03:31:59.456Z,99
2018-12-17T03:33:01.777Z,99
2018-12-17T03:34:04.385Z,99
2018-12-17T03:35:06.722Z,99
2018-12-17T03:36:08.747Z,99
2018-12-17T03:37:11.434Z,99
2018-12-17T03:38:13.452Z,99
2018-12-17T03:39:15.480Z,99
2018-12-17T03:40:17.823Z,99
2018-12-17T03:41:19.868Z,99
2018-12-17T03:42:21.886Z,100
2018-12-17T03:43:24.223Z,100
2018-12-17T03:44:26.621Z,100
2018-12-17T03:45:28.639Z,100
2018-12-17T03:46:30.664Z,100
2018-12-17T03:47:33.067Z,100
2018-12-17T03:48:35.090Z,100
2018-12-17T03:49:37.503Z,100
2018-12-17T03:50:39.534Z,100
2018-12-17T03:51:41.548Z,100
2018-12-17T03:52:43.576Z,100
2018-12-17T03:53:45.611Z,100
2018-12-17T03:54:47.942Z,100
2018-12-17T03:55:49.974Z,100
2018-12-17T03:56:51.991Z,100
2018-12-17T03:57:54.407Z,100
2018-12-17T03:59:00.536Z,100
2018-12-17T04:00:02.580Z,100
2018-12-17T04:01:04.601Z,100
2018-12-17T04:02:06.623Z,100
2018-12-17T04:03:08.674Z,100
2018-12-17T04:04:11.395Z,100
2018-12-17T04:05:13.707Z,100
2018-12-17T04:06:15.732Z,100
2018-12-17T04:07:17.748Z,100
2018-12-17T04:08:19.773Z,100
2018-12-17T04:09:22.379Z,100
2018-12-17T04:10:24.403Z,100
2018-12-17T04:11:26.432Z,100
2018-12-17T04:12:28.738Z,100
2018-12-17T04:13:30.754Z,100
2018-12-17T04:14:32.788Z,100
2018-12-17T04:15:34.827Z,100
2018-12-17T04:16:36.840Z,100
2018-12-17T04:17:38.870Z,100
2018-12-17T04:18:40.906Z,100
2018-12-17T04:19:42.922Z,100
2018-12-17T04:20:44.946Z,100
2018-12-17T04:21:46.966Z,100
2018-12-17T04:22:49.023Z,100
2018-12-17T04:23:51.344Z,100
2018-12-17T04:24:53.384Z,100
2018-12-17T04:25:55.389Z,100
2018-12-17T04:26:57.416Z,100
2018-12-17T04:27:59.825Z,100
2018-12-17T04:29:08.232Z,100
2018-12-17T04:30:10.248Z,100
2018-12-17T04:31:12.275Z,100
2018-12-17T04:32:14.293Z,100
2018-12-17T04:33:16.712Z,100
2018-12-17T04:34:18.719Z,100
2018-12-17T04:35:20.755Z,100
2018-12-17T04:36:22.791Z,100
2018-12-17T04:37:24.806Z,100
2018-12-17T04:38:26.834Z,100
2018-12-17T04:39:28.902Z,100
2018-12-17T04:40:30.916Z,100
2018-12-17T04:41:33.238Z,100
2018-12-17T04:42:35.265Z,100
2018-12-17T04:43:37.562Z,100
2018-12-17T04:44:39.668Z,100
2018-12-17T04:45:42.079Z,100
2018-12-17T04:46:44.482Z,100
2018-12-17T04:47:46.503Z,100
2018-12-17T04:48:48.931Z,100
2018-12-17T04:49:51.222Z,100
2018-12-17T04:50:53.650Z,100
2018-12-17T04:51:55.682Z,100
2018-12-17T04:52:58.361Z,100
2018-12-17T04:54:00.395Z,100
2018-12-17T04:55:02.420Z,100
2018-12-17T04:56:04.440Z,100
2018-12-17T04:57:06.478Z,100
2018-12-17T04:58:09.208Z,100
2018-12-17T04:59:15.918Z,100
2018-12-17T05:00:18.025Z,100
2018-12-17T05:01:20.050Z,100
2018-12-17T05:02:22.080Z,100
2018-12-17T05:03:24.110Z,100
2018-12-17T05:04:26.126Z,100
2018-12-17T05:05:28.441Z,100
2018-12-17T05:06:30.449Z,100
2018-12-17T05:07:32.867Z,100
2018-12-17T05:08:35.277Z,100
2018-12-17T05:09:37.682Z,100
2018-12-17T05:10:39.695Z,100
2018-12-17T05:11:41.807Z,100
2018-12-17T05:12:43.911Z,100
2018-12-17T05:13:45.929Z,100
2018-12-17T05:14:48.625Z,100
2018-12-17T05:15:51.245Z,100
2018-12-17T05:16:53.551Z,100
2018-12-17T05:17:55.587Z,100
2018-12-17T05:18:57.611Z,100
2018-12-17T05:19:59.925Z,100
2018-12-17T05:21:02.020Z,100
2018-12-17T05:22:04.059Z,100
2018-12-17T05:23:06.067Z,100
2018-12-17T05:24:08.090Z,100
2018-12-17T05:25:10.460Z,100
2018-12-17T05:26:12.780Z,100
2018-12-17T05:27:14.807Z,100
2018-12-17T05:28:16.840Z,100
2018-12-17T05:29:22.507Z,100
2018-12-17T05:30:24.526Z,100
2018-12-17T05:31:26.842Z,100
2018-12-17T05:32:28.850Z,100
2018-12-17T05:33:30.883Z,100
2018-12-17T05:34:32.927Z,100
2018-12-17T05:35:35.239Z,100
2018-12-17T05:36:37.939Z,100
2018-12-17T05:37:39.965Z,100
2018-12-17T05:38:42.382Z,100
2018-12-17T05:39:44.388Z,100
2018-12-17T05:40:46.429Z,100
2018-12-17T05:41:48.740Z,100
2018-12-17T05:42:50.765Z,100
2018-12-17T05:43:53.093Z,100
2018-12-17T05:44:55.113Z,100
2018-12-17T05:45:57.415Z,100
2018-12-17T05:46:59.726Z,100
2018-12-17T05:48:02.156Z,100
2018-12-17T05:49:04.759Z,100
2018-12-17T05:50:07.168Z,100
2018-12-17T05:51:09.205Z,100
2018-12-17T05:52:11.246Z,100
2018-12-17T05:53:13.370Z,100
2018-12-17T05:54:15.402Z,100
2018-12-17T05:55:17.494Z,100
2018-12-17T05:56:19.504Z,100
2018-12-17T05:57:21.925Z,100
2018-12-17T05:58:23.962Z,100
2018-12-17T05:59:29.515Z,100
2018-12-17T06:00:31.544Z,100
2018-12-17T06:01:33.851Z,100
2018-12-17T06:02:35.871Z,100
2018-12-17T06:03:38.168Z,100
2018-12-17T06:04:40.586Z,100
2018-12-17T06:05:42.884Z,100
2018-12-17T06:06:45.309Z,100
2018-12-17T06:07:47.332Z,100
2018-12-17T06:08:49.423Z,100
2018-12-17T06:09:51.452Z,100
2018-12-17T06:10:53.468Z,100
2018-12-17T06:11:55.485Z,100
2018-12-17T06:12:57.495Z,100
2018-12-17T06:13:59.524Z,100
2018-12-17T06:15:01.544Z,100
2018-12-17T06:16:03.845Z,100
2018-12-17T06:17:05.870Z,100
2018-12-17T06:18:07.883Z,100
2018-12-17T06:19:09.909Z,100
2018-12-17T06:20:11.934Z,100
2018-12-17T06:21:13.962Z,100
2018-12-17T06:22:16.360Z,100
2018-12-17T06:23:18.664Z,100
2018-12-17T06:24:20.679Z,100
2018-12-17T06:25:22.755Z,100
2018-12-17T06:26:25.188Z,100
2018-12-17T06:27:27.591Z,100
2018-12-17T06:28:29.603Z,100
2018-12-17T06:29:36.484Z,100
2018-12-17T06:30:38.787Z,100
2018-12-17T06:31:40.817Z,100
2018-12-17T06:32:43.124Z,100
2018-12-17T06:33:45.207Z,100
2018-12-17T06:34:47.225Z,100
2018-12-17T06:35:49.252Z,100
2018-12-17T06:36:51.278Z,100
2018-12-17T06:37:53.582Z,100
2018-12-17T06:38:55.640Z,100
2018-12-17T06:39:57.650Z,100
2018-12-17T06:41:00.066Z,100
2018-12-17T06:42:02.379Z,100
2018-12-17T06:43:04.399Z,100
2018-12-17T06:44:06.421Z,100
2018-12-17T06:45:08.438Z,100
2018-12-17T06:46:10.479Z,100
2018-12-17T06:47:12.485Z,100
2018-12-17T06:48:18.179Z,100
2018-12-17T06:49:20.206Z,100
2018-12-17T06:50:22.218Z,100
2018-12-17T06:51:24.246Z,100
2018-12-17T06:52:26.268Z,100
2018-12-17T06:53:28.280Z,100
2018-12-17T06:54:30.301Z,100
2018-12-17T06:55:32.332Z,100
2018-12-17T06:56:34.364Z,100
2018-12-17T06:57:36.394Z,100
2018-12-17T06:58:38.416Z,100
2018-12-17T06:59:43.716Z,100
2018-12-17T07:00:45.741Z,100
2018-12-17T07:01:47.772Z,100
2018-12-17T07:02:50.083Z,100
2018-12-17T07:03:52.099Z,100
2018-12-17T07:04:54.113Z,100
2018-12-17T07:05:56.136Z,100
2018-12-17T07:06:58.149Z,100
2018-12-17T07:08:00.172Z,100
2018-12-17T07:09:02.199Z,100
2018-12-17T07:10:04.225Z,100
2018-12-17T07:11:06.318Z,100
2018-12-17T07:12:08.643Z,100
2018-12-17T07:13:10.658Z,100
2018-12-17T07:14:13.062Z,100
2018-12-17T07:15:15.091Z,100
2018-12-17T07:16:17.107Z,100
2018-12-17T07:17:19.133Z,100
2018-12-17T07:18:21.145Z,100
2018-12-17T07:19:23.254Z,100
2018-12-17T07:20:25.654Z,100
2018-12-17T07:21:27.963Z,100
2018-12-17T07:22:29.991Z,100
2018-12-17T07:23:32.289Z,100
2018-12-17T07:24:34.323Z,100
2018-12-17T07:25:36.337Z,100
2018-12-17T07:26:38.434Z,100
2018-12-17T07:27:40.452Z,100
2018-12-17T07:28:42.794Z,100
2018-12-17T07:29:50.762Z,100
2018-12-17T07:30:52.785Z,100
2018-12-17T07:31:55.104Z,100
2018-12-17T07:32:57.119Z,100
2018-12-17T07:33:59.526Z,100
2018-12-17T07:35:01.562Z,100
2018-12-17T07:36:03.629Z,100
2018-12-17T07:37:05.656Z,100
2018-12-17T07:38:07.681Z,100
2018-12-17T07:39:09.705Z,100
2018-12-17T07:40:11.998Z,100
2018-12-17T07:41:14.300Z,100
2018-12-17T07:42:16.325Z,100
2018-12-17T07:43:18.354Z,100
2018-12-17T07:44:20.359Z,100
2018-12-17T07:45:22.678Z,100
2018-12-17T07:46:24.697Z,100
2018-12-17T07:47:26.716Z,100
2018-12-17T07:48:28.752Z,100
2018-12-17T07:49:30.759Z,100
2018-12-17T07:50:32.784Z,100
2018-12-17T07:51:34.814Z,100
2018-12-17T07:52:36.847Z,100
2018-12-17T07:53:38.861Z,100
2018-12-17T07:54:40.890Z,100
2018-12-17T07:55:42.915Z,100
2018-12-17T07:56:44.924Z,100
2018-12-17T07:57:46.950Z,100
2018-12-17T07:58:48.960Z,100
2018-12-17T07:59:57.710Z,100
2018-12-17T08:01:00.009Z,100
2018-12-17T08:02:02.082Z,100
2018-12-17T08:03:04.386Z,100
2018-12-17T08:04:07.158Z,100
2018-12-17T08:05:09.180Z,100
2018-12-17T08:06:11.192Z,100
2018-12-17T08:07:13.510Z,100
2018-12-17T08:08:15.545Z,100
2018-12-17T08:09:17.836Z,100
2018-12-17T08:10:19.868Z,100
2018-12-17T08:11:21.902Z,100
2018-12-17T08:12:24.360Z,100
2018-12-17T08:13:26.505Z,100
2018-12-17T08:14:28.902Z,100
2018-12-17T08:15:30.922Z,100
2018-12-17T08:16:32.980Z,100
2018-12-17T08:17:34.996Z,100
2018-12-17T08:18:37.140Z,100
2018-12-17T08:19:39.820Z,100
2018-12-17T08:20:41.840Z,100
2018-12-17T08:21:43.866Z,100
2018-12-17T08:22:45.882Z,100
2018-12-17T08:23:48.186Z,100
2018-12-17T08:24:50.948Z,100
2018-12-17T08:25:53.056Z,100
2018-12-17T08:26:55.065Z,100
2018-12-17T08:27:57.482Z,100
2018-12-17T08:28:59.513Z,100
2018-12-17T08:30:05.027Z,100
2018-12-17T08:31:07.057Z,100
2018-12-17T08:32:09.087Z,100
2018-12-17T08:33:11.383Z,100
2018-12-17T08:34:13.402Z,100
2018-12-17T08:35:15.720Z,100
2018-12-17T08:36:17.743Z,100
2018-12-17T08:37:19.762Z,100
2018-12-17T08:38:21.808Z,100
2018-12-17T08:39:23.871Z,100
2018-12-17T08:40:25.895Z,100
2018-12-17T08:41:27.920Z,100
2018-12-17T08:42:29.929Z,100
2018-12-17T08:43:32.340Z,100
2018-12-17T08:44:34.366Z,100
2018-12-17T08:45:36.428Z,100
2018-12-17T08:46:38.462Z,100
2018-12-17T08:47:40.765Z,100
2018-12-17T08:48:43.064Z,100
2018-12-17T08:49:45.080Z,100
2018-12-17T08:50:47.113Z,100
2018-12-17T08:51:49.136Z,100
2018-12-17T08:52:51.618Z,100
2018-12-17T08:53:54.313Z,100
2018-12-17T08:54:56.327Z,100
2018-12-17T08:55:58.359Z,100
2018-12-17T08:57:00.380Z,100
2018-12-17T08:58:02.457Z,100
2018-12-17T08:59:06.046Z,100
2018-12-17T09:00:12.074Z,100
2018-12-17T09:01:14.167Z,100
2018-12-17T09:02:16.192Z,100
2018-12-17T09:03:18.220Z,100
2018-12-17T09:04:20.244Z,100
2018-12-17T09:05:22.275Z,100
2018-12-17T09:06:24.298Z,100
2018-12-17T09:07:26.385Z,100
2018-12-17T09:08:28.394Z,100
2018-12-17T09:09:30.708Z,100
2018-12-17T09:10:32.724Z,100
2018-12-17T09:11:34.752Z,100
2018-12-17T09:12:36.781Z,100
2018-12-17T09:13:38.808Z,100
2018-12-17T09:14:40.827Z,100
2018-12-17T09:15:42.864Z,100
2018-12-17T09:16:44.882Z,100
2018-12-17T09:17:46.891Z,100
2018-12-17T09:18:49.007Z,100
2018-12-17T09:19:51.029Z,100
2018-12-17T09:20:53.056Z,100
2018-12-17T09:21:55.078Z,100
2018-12-17T09:22:57.107Z,100
2018-12-17T09:23:59.121Z,100
2018-12-17T09:25:01.159Z,100
2018-12-17T09:26:03.190Z,100
2018-12-17T09:27:05.215Z,100
2018-12-17T09:28:07.530Z,100
2018-12-17T09:29:09.546Z,100
2018-12-17T09:30:19.168Z,100
2018-12-17T09:31:21.194Z,100
2018-12-17T09:32:23.617Z,100
2018-12-17T09:33:25.634Z,100
2018-12-17T09:34:27.649Z,100
2018-12-17T09:35:29.667Z,100
2018-12-17T09:36:31.695Z,100
2018-12-17T09:37:33.716Z,100
2018-12-17T09:38:35.744Z,100
2018-12-17T09:39:37.780Z,100
2018-12-17T09:40:39.801Z,100
2018-12-17T09:41:42.476Z,100
2018-12-17T09:42:44.780Z,100
2018-12-17T09:43:46.797Z,100
2018-12-17T09:44:49.207Z,100
2018-12-17T09:45:51.237Z,100
2018-12-17T09:46:53.646Z,100
2018-12-17T09:47:55.941Z,100
2018-12-17T09:48:57.979Z,100
2018-12-17T09:50:00.005Z,100
2018-12-17T09:51:02.096Z,100
2018-12-17T09:52:04.514Z,100
2018-12-17T09:53:06.533Z,100
2018-12-17T09:54:08.838Z,100
2018-12-17T09:55:10.866Z,100
2018-12-17T09:56:12.892Z,100
2018-12-17T09:57:14.899Z,100
2018-12-17T09:58:16.933Z,100
2018-12-17T09:59:19.231Z,100
2018-12-17T10:00:26.866Z,100
2018-12-17T10:01:28.903Z,100
2018-12-17T10:02:30.922Z,100
2018-12-17T10:03:32.951Z,100
2018-12-17T10:04:35.254Z,100
2018-12-17T10:05:37.345Z,100
2018-12-17T10:06:39.361Z,100
2018-12-17T10:07:41.384Z,100
2018-12-17T10:08:43.427Z,100
2018-12-17T10:09:45.444Z,100
2018-12-17T10:10:47.484Z,100
2018-12-17T10:11:49.501Z,100
2018-12-17T10:12:51.800Z,100
2018-12-17T10:13:54.107Z,100
2018-12-17T10:14:56.146Z,100
2018-12-17T10:15:58.164Z,100
2018-12-17T10:17:00.465Z,100
2018-12-17T10:18:02.499Z,100
2018-12-17T10:19:04.519Z,100
2018-12-17T10:20:06.600Z,100
2018-12-17T10:21:08.636Z,100
2018-12-17T10:22:10.977Z,100
2018-12-17T10:23:13.001Z,100
2018-12-17T10:24:15.030Z,100
2018-12-17T10:25:17.052Z,100
2018-12-17T10:26:19.372Z,100
2018-12-17T10:27:21.678Z,100
2018-12-17T10:28:23.761Z,100
2018-12-17T10:29:25.809Z,100
2018-12-17T10:30:33.564Z,100
2018-12-17T10:31:35.575Z,100
2018-12-17T10:32:37.602Z,100
2018-12-17T10:33:39.642Z,100
2018-12-17T10:34:41.671Z,100
2018-12-17T10:35:44.016Z,100
2018-12-17T10:36:46.035Z,100
2018-12-17T10:37:48.058Z,100
2018-12-17T10:38:50.352Z,100
2018-12-17T10:39:52.390Z,100
2018-12-17T10:40:54.414Z,100
2018-12-17T10:41:56.437Z,100
2018-12-17T10:42:58.468Z,100
2018-12-17T10:44:00.573Z,100
2018-12-17T10:45:02.914Z,100
2018-12-17T10:46:04.948Z,100
2018-12-17T10:47:06.975Z,100
2018-12-17T10:48:09.263Z,100
2018-12-17T10:49:11.287Z,100
2018-12-17T10:50:13.703Z,100
2018-12-17T10:51:15.725Z,100
2018-12-17T10:52:18.037Z,100
2018-12-17T10:53:20.342Z,100
2018-12-17T10:54:26.326Z,100
2018-12-17T10:55:28.681Z,100
2018-12-17T10:56:37.968Z,100
2018-12-17T10:57:41.820Z,100
2018-12-17T10:58:43.845Z,100
2018-12-17T10:59:45.882Z,100
2018-12-17T11:00:48.284Z,100
2018-12-17T11:01:50.303Z,100
2018-12-17T11:02:52.335Z,100
2018-12-17T11:03:54.657Z,100
2018-12-17T11:04:56.953Z,100
2018-12-17T11:05:58.978Z,100
2018-12-17T11:07:01.002Z,100
2018-12-17T11:08:03.300Z,100
2018-12-17T11:09:05.628Z,100
2018-12-17T11:10:07.646Z,100
2018-12-17T11:11:09.719Z,100
2018-12-17T11:12:11.788Z,100
2018-12-17T11:13:13.843Z,100
2018-12-17T11:14:15.859Z,100
2018-12-17T11:15:17.871Z,100
2018-12-17T11:16:19.903Z,100
2018-12-17T11:17:21.923Z,100
2018-12-17T11:18:24.334Z,100
2018-12-17T11:19:26.376Z,100
2018-12-17T11:20:28.398Z,100
2018-12-17T11:21:30.428Z,100
2018-12-17T11:22:32.743Z,100
2018-12-17T11:23:34.765Z,100
2018-12-17T11:24:37.496Z,100
2018-12-17T11:25:39.533Z,100
2018-12-17T11:26:41.558Z,100
2018-12-17T11:27:43.580Z,100
2018-12-17T11:28:45.619Z,100
2018-12-17T11:29:47.640Z,100
2018-12-17T11:30:49.653Z,100
2018-12-17T11:31:51.684Z,100
2018-12-17T11:32:53.756Z,100
2018-12-17T11:33:55.785Z,100
2018-12-17T11:34:57.817Z,100
2018-12-17T11:35:59.849Z,100
2018-12-17T11:37:01.867Z,100
2018-12-17T11:38:03.980Z,100
2018-12-17T11:39:06.000Z,100
2018-12-17T11:40:08.106Z,100
2018-12-17T11:41:10.139Z,100
2018-12-17T11:42:12.434Z,100
2018-12-17T11:43:14.458Z,100
2018-12-17T11:44:16.480Z,100
2018-12-17T11:45:18.518Z,100
2018-12-17T11:46:20.812Z,100
2018-12-17T11:47:22.845Z,100
2018-12-17T11:48:24.879Z,100
2018-12-17T11:49:26.895Z,100
2018-12-17T11:50:28.926Z,100
2018-12-17T11:51:31.237Z,100
2018-12-17T11:52:33.648Z,100
2018-12-17T11:53:35.950Z,100
2018-12-17T11:54:37.983Z,100
2018-12-17T11:55:40.000Z,100
2018-12-17T11:56:42.997Z,100
2018-12-17T11:57:45.025Z,100
2018-12-17T11:58:47.039Z,100
2018-12-17T11:59:49.065Z,100
2018-12-17T12:00:55.376Z,100
2018-12-17T12:01:57.385Z,100
2018-12-17T12:03:00.133Z,100
2018-12-17T12:04:02.171Z,100
2018-12-17T12:05:04.196Z,100
2018-12-17T12:06:06.221Z,100
2018-12-17T12:07:16.189Z,100
2018-12-17T12:08:18.211Z,100
2018-12-17T12:09:20.237Z,100
2018-12-17T12:10:22.635Z,100
2018-12-17T12:11:25.007Z,100
2018-12-17T12:12:27.031Z,100
2018-12-17T12:13:29.053Z,100
2018-12-17T12:14:31.378Z,100
2018-12-17T12:15:33.446Z,100
2018-12-17T12:16:35.475Z,100
2018-12-17T12:17:37.502Z,100
2018-12-17T12:18:39.544Z,100
2018-12-17T12:19:41.553Z,100
2018-12-17T12:20:43.581Z,100
2018-12-17T12:21:46.047Z,100
2018-12-17T12:22:48.095Z,100
2018-12-17T12:23:50.143Z,100
2018-12-17T12:24:52.449Z,100
2018-12-17T12:25:54.466Z,100
2018-12-17T12:26:56.480Z,100
2018-12-17T12:27:58.797Z,100
2018-12-17T12:29:00.816Z,100
2018-12-17T12:30:02.897Z,100
2018-12-17T12:31:05.505Z,100
2018-12-17T12:32:07.522Z,100
2018-12-17T12:33:09.550Z,100
2018-12-17T12:34:11.862Z,100
2018-12-17T12:35:13.939Z,100
2018-12-17T12:36:16.254Z,100
2018-12-17T12:37:18.287Z,100
2018-12-17T12:38:20.304Z,100
2018-12-17T12:39:22.347Z,100
2018-12-17T12:40:24.374Z,100
2018-12-17T12:41:26.395Z,100
2018-12-17T12:42:28.411Z,100
2018-12-17T12:43:30.432Z,100
2018-12-17T12:44:32.475Z,100
2018-12-17T12:45:34.781Z,100
2018-12-17T12:46:37.187Z,100
2018-12-17T12:47:39.222Z,100
2018-12-17T12:48:41.235Z,100
2018-12-17T12:49:43.314Z,100
2018-12-17T12:50:45.342Z,100
2018-12-17T12:51:47.379Z,100
2018-12-17T12:52:49.392Z,100
2018-12-17T12:53:51.707Z,100
2018-12-17T12:54:53.738Z,100
2018-12-17T12:55:55.753Z,100
2018-12-17T12:56:57.787Z,100
2018-12-17T12:58:04.778Z,100
2018-12-17T12:59:06.801Z,100
2018-12-17T13:00:08.817Z,100
2018-12-17T13:01:11.143Z,100
2018-12-17T13:02:13.168Z,100
2018-12-17T13:03:15.194Z,100
2018-12-17T13:04:17.501Z,100
2018-12-17T13:05:19.542Z,100
2018-12-17T13:06:21.861Z,100
2018-12-17T13:07:23.890Z,100
2018-12-17T13:08:25.904Z,100
2018-12-17T13:09:27.942Z,100
2018-12-17T13:10:29.982Z,100
2018-12-17T13:11:32.021Z,100
2018-12-17T13:12:34.055Z,100
2018-12-17T13:13:36.086Z,100
2018-12-17T13:14:38.108Z,100
2018-12-17T13:15:40.215Z,100
2018-12-17T13:16:42.290Z,100
2018-12-17T13:17:45.972Z,100
2018-12-17T13:18:48.011Z,100
2018-12-17T13:19:50.040Z,100
2018-12-17T13:20:52.066Z,100
2018-12-17T13:21:54.078Z,100
2018-12-17T13:22:56.104Z,100
2018-12-17T13:23:58.122Z,100
2018-12-17T13:25:00.157Z,100
2018-12-17T13:26:02.940Z,100
2018-12-17T13:27:04.967Z,100
2018-12-17T13:28:07.093Z,100
2018-12-17T13:29:09.404Z,100
2018-12-17T13:30:11.438Z,100
2018-12-17T13:31:15.773Z,100
2018-12-17T13:32:17.868Z,100
2018-12-17T13:33:20.685Z,100
2018-12-17T13:34:23.142Z,100
2018-12-17T13:35:25.246Z,100
2018-12-17T13:36:27.863Z,100
2018-12-17T13:37:29.889Z,100
2018-12-17T13:38:31.907Z,100
2018-12-17T13:39:33.938Z,100
2018-12-17T13:40:35.979Z,100
2018-12-17T13:41:37.987Z,100
2018-12-17T13:42:40.011Z,100
2018-12-17T13:43:42.043Z,100
2018-12-17T13:44:44.631Z,100
2018-12-17T13:45:46.660Z,100
2018-12-17T13:46:48.697Z,100
2018-12-17T13:47:50.781Z,100
2018-12-17T13:48:52.808Z,100
2018-12-17T13:49:55.234Z,100
2018-12-17T13:50:57.539Z,100
2018-12-17T13:51:59.559Z,100
2018-12-17T13:53:01.578Z,100
2018-12-17T13:54:05.721Z,100
2018-12-17T13:55:07.751Z,100
2018-12-17T13:56:09.773Z,100
2018-12-17T13:57:12.078Z,100
2018-12-17T13:58:14.089Z,100
2018-12-17T13:59:16.124Z,100
2018-12-17T14:00:18.149Z,100
2018-12-17T14:01:22.826Z,100
2018-12-17T14:02:24.872Z,100
2018-12-17T14:03:27.282Z,100
2018-12-17T14:04:29.303Z,100
2018-12-17T14:05:31.333Z,100
2018-12-17T14:06:33.360Z,100
2018-12-17T14:07:35.369Z,100
2018-12-17T14:08:37.405Z,100
2018-12-17T14:09:39.436Z,100
2018-12-17T14:10:41.451Z,100
2018-12-17T14:11:43.483Z,100
2018-12-17T14:12:45.509Z,100
2018-12-17T14:13:47.526Z,100
2018-12-17T14:14:49.571Z,100
2018-12-17T14:15:51.869Z,100
2018-12-17T14:16:54.271Z,100
2018-12-17T14:17:56.298Z,100
2018-12-17T14:18:58.313Z,100
2018-12-17T14:20:00.356Z,100
2018-12-17T14:21:02.379Z,100
2018-12-17T14:22:04.412Z,100
2018-12-17T14:23:06.429Z,100
2018-12-17T14:24:08.466Z,100
2018-12-17T14:25:10.496Z,100